sensor_id;sensor_type;location;lat;lon;timestamp;pressure;altitude;pressure_sealevel;temperature;humidity
34205;BME280;20471;49.680;20.074;2023-02-01T00:01:12;96578.04;;;1.11;77.55
34205;BME280;20471;49.680;20.074;2023-02-01T00:03:41;96571.13;;;1.13;77.66
34205;BME280;20471;49.680;20.074;2023-02-01T00:06:09;96564.11;;;1.14;77.70
34205;BME280;20471;49.680;20.074;2023-02-01T00:08:37;96562.86;;;1.14;77.56
34205;BME280;20471;49.680;20.074;2023-02-01T00:11:11;96555.77;;;1.14;77.62
34205;BME280;20471;49.680;20.074;2023-02-01T00:13:41;96559.46;;;1.14;77.77
34205;BME280;20471;49.680;20.074;2023-02-01T00:16:14;96566.73;;;1.16;77.75
34205;BME280;20471;49.680;20.074;2023-02-01T00:18:44;96563.08;;;1.17;77.76
34205;BME280;20471;49.680;20.074;2023-02-01T00:21:14;96551.64;;;1.18;77.96
34205;BME280;20471;49.680;20.074;2023-02-01T00:23:43;96539.27;;;1.19;77.86
34205;BME280;20471;49.680;20.074;2023-02-01T00:26:17;96533.13;;;1.20;77.83
34205;BME280;20471;49.680;20.074;2023-02-01T00:28:45;96535.79;;;1.20;77.83
34205;BME280;20471;49.680;20.074;2023-02-01T00:31:14;96541.52;;;1.21;77.80
34205;BME280;20471;49.680;20.074;2023-02-01T00:33:42;96537.52;;;1.23;77.80
34205;BME280;20471;49.680;20.074;2023-02-01T00:36:10;96542.75;;;1.27;77.77
34205;BME280;20471;49.680;20.074;2023-02-01T00:38:39;96544.94;;;1.28;77.69
34205;BME280;20471;49.680;20.074;2023-02-01T00:43:38;96544.86;;;1.30;77.84
34205;BME280;20471;49.680;20.074;2023-02-01T00:46:07;96552.51;;;1.30;77.91
34205;BME280;20471;49.680;20.074;2023-02-01T00:48:35;96552.41;;;1.29;77.95
34205;BME280;20471;49.680;20.074;2023-02-01T00:51:13;96555.47;;;1.29;77.99
34205;BME280;20471;49.680;20.074;2023-02-01T00:53:41;96569.00;;;1.27;78.07
34205;BME280;20471;49.680;20.074;2023-02-01T00:56:09;96559.20;;;1.26;78.09
34205;BME280;20471;49.680;20.074;2023-02-01T00:58:38;96554.75;;;1.26;78.03
34205;BME280;20471;49.680;20.074;2023-02-01T01:01:12;96556.56;;;1.27;78.15
34205;BME280;20471;49.680;20.074;2023-02-01T01:03:44;96560.99;;;1.27;78.15
34205;BME280;20471;49.680;20.074;2023-02-01T01:06:15;96555.98;;;1.27;78.09
34205;BME280;20471;49.680;20.074;2023-02-01T01:08:43;96554.64;;;1.28;78.14
34205;BME280;20471;49.680;20.074;2023-02-01T01:11:18;96544.94;;;1.29;78.18
34205;BME280;20471;49.680;20.074;2023-02-01T01:13:48;96539.45;;;1.31;78.26
34205;BME280;20471;49.680;20.074;2023-02-01T01:16:17;96542.57;;;1.32;78.20
34205;BME280;20471;49.680;20.074;2023-02-01T01:18:46;96532.42;;;1.32;78.16
34205;BME280;20471;49.680;20.074;2023-02-01T01:21:15;96532.96;;;1.32;78.19
34205;BME280;20471;49.680;20.074;2023-02-01T01:23:45;96540.84;;;1.31;78.17
34205;BME280;20471;49.680;20.074;2023-02-01T01:26:16;96536.33;;;1.30;78.44
34205;BME280;20471;49.680;20.074;2023-02-01T01:28:44;96524.10;;;1.29;78.41
34205;BME280;20471;49.680;20.074;2023-02-01T01:31:14;96524.06;;;1.28;78.31
34205;BME280;20471;49.680;20.074;2023-02-01T01:33:43;96520.74;;;1.27;78.40
34205;BME280;20471;49.680;20.074;2023-02-01T01:36:11;96522.70;;;1.29;78.32
34205;BME280;20471;49.680;20.074;2023-02-01T01:38:40;96522.39;;;1.31;78.33
34205;BME280;20471;49.680;20.074;2023-02-01T01:41:15;96520.77;;;1.34;78.28
34205;BME280;20471;49.680;20.074;2023-02-01T01:46:30;96504.54;;;1.44;78.20
34205;BME280;20471;49.680;20.074;2023-02-01T01:49:09;96491.52;;;1.53;78.14
34205;BME280;20471;49.680;20.074;2023-02-01T01:51:44;96489.27;;;1.60;77.98
34205;BME280;20471;49.680;20.074;2023-02-01T01:54:21;96497.01;;;1.66;77.90
34205;BME280;20471;49.680;20.074;2023-02-01T01:56:55;96504.11;;;1.72;77.87
34205;BME280;20471;49.680;20.074;2023-02-01T01:59:25;96489.27;;;1.78;77.61
34205;BME280;20471;49.680;20.074;2023-02-01T02:01:55;96501.13;;;1.83;77.44
34205;BME280;20471;49.680;20.074;2023-02-01T02:04:24;96502.44;;;1.87;77.31
34205;BME280;20471;49.680;20.074;2023-02-01T02:09:26;96502.52;;;1.95;77.03
34205;BME280;20471;49.680;20.074;2023-02-01T02:11:55;96510.75;;;1.99;76.62
34205;BME280;20471;49.680;20.074;2023-02-01T02:14:23;96513.09;;;2.05;76.50
34205;BME280;20471;49.680;20.074;2023-02-01T02:31:00;96556.64;;;2.22;76.12
34205;BME280;20471;49.680;20.074;2023-02-01T02:42:12;96613.88;;;0.95;77.62
34205;BME280;20471;49.680;20.074;2023-02-01T02:45:06;96616.21;;;0.82;78.04
34205;BME280;20471;49.680;20.074;2023-02-01T02:48:12;96623.95;;;0.76;78.37
34205;BME280;20471;49.680;20.074;2023-02-01T02:50:48;96633.79;;;0.75;78.59
34205;BME280;20471;49.680;20.074;2023-02-01T02:56:26;96654.45;;;0.60;78.74
34205;BME280;20471;49.680;20.074;2023-02-01T02:59:15;96652.11;;;0.57;78.94
34205;BME280;20471;49.680;20.074;2023-02-01T03:02:02;96637.98;;;0.55;79.25
34205;BME280;20471;49.680;20.074;2023-02-01T03:04:52;96628.25;;;0.56;79.48
34205;BME280;20471;49.680;20.074;2023-02-01T03:10:40;96619.48;;;0.57;79.75
34205;BME280;20471;49.680;20.074;2023-02-01T03:13:14;96620.69;;;0.56;79.81
34205;BME280;20471;49.680;20.074;2023-02-01T03:16:13;96611.02;;;0.55;79.96
34205;BME280;20471;49.680;20.074;2023-02-01T03:19:00;96612.15;;;0.53;80.03
34205;BME280;20471;49.680;20.074;2023-02-01T03:21:59;96612.11;;;0.54;80.15
34205;BME280;20471;49.680;20.074;2023-02-01T03:24:40;96621.17;;;0.56;80.18
34205;BME280;20471;49.680;20.074;2023-02-01T03:27:21;96621.21;;;0.59;80.00
34205;BME280;20471;49.680;20.074;2023-02-01T03:32:47;96617.61;;;0.66;80.32
34205;BME280;20471;49.680;20.074;2023-02-01T03:40:36;96628.00;;;0.67;80.15
34205;BME280;20471;49.680;20.074;2023-02-01T03:43:06;96626.45;;;0.68;80.32
34205;BME280;20471;49.680;20.074;2023-02-01T03:45:42;96624.55;;;0.69;80.28
34205;BME280;20471;49.680;20.074;2023-02-01T03:48:12;96628.05;;;0.73;80.32
34205;BME280;20471;49.680;20.074;2023-02-01T03:50:50;96625.81;;;0.77;80.36
34205;BME280;20471;49.680;20.074;2023-02-01T03:53:22;96622.02;;;0.78;80.20
34205;BME280;20471;49.680;20.074;2023-02-01T03:55:53;96622.36;;;0.79;80.09
34205;BME280;20471;49.680;20.074;2023-02-01T03:58:23;96621.33;;;0.82;79.98
34205;BME280;20471;49.680;20.074;2023-02-01T04:00:54;96619.48;;;0.86;79.97
34205;BME280;20471;49.680;20.074;2023-02-01T04:03:23;96620.57;;;0.91;79.93
34205;BME280;20471;49.680;20.074;2023-02-01T04:05:52;96615.33;;;0.93;79.83
34205;BME280;20471;49.680;20.074;2023-02-01T04:08:21;96618.11;;;0.93;79.79
34205;BME280;20471;49.680;20.074;2023-02-01T04:10:50;96620.70;;;0.94;79.76
34205;BME280;20471;49.680;20.074;2023-02-01T04:13:18;96617.88;;;0.96;79.80
34205;BME280;20471;49.680;20.074;2023-02-01T04:15:47;96614.30;;;0.97;79.70
34205;BME280;20471;49.680;20.074;2023-02-01T04:18:16;96615.85;;;0.96;79.64
34205;BME280;20471;49.680;20.074;2023-02-01T04:20:44;96617.39;;;0.98;79.67
34205;BME280;20471;49.680;20.074;2023-02-01T04:23:12;96621.86;;;1.02;79.50
34205;BME280;20471;49.680;20.074;2023-02-01T04:25:42;96624.86;;;1.06;79.54
34205;BME280;20471;49.680;20.074;2023-02-01T04:28:10;96627.52;;;1.07;79.50
34205;BME280;20471;49.680;20.074;2023-02-01T04:30:38;96625.95;;;1.10;79.63
34205;BME280;20471;49.680;20.074;2023-02-01T04:33:06;96632.70;;;1.12;79.60
34205;BME280;20471;49.680;20.074;2023-02-01T04:35:34;96639.07;;;1.14;79.57
34205;BME280;20471;49.680;20.074;2023-02-01T04:38:02;96640.90;;;1.15;79.49
34205;BME280;20471;49.680;20.074;2023-02-01T04:40:31;96636.14;;;1.16;79.56
34205;BME280;20471;49.680;20.074;2023-02-01T04:43:00;96635.11;;;1.17;79.54
34205;BME280;20471;49.680;20.074;2023-02-01T04:45:30;96640.16;;;1.17;79.55
34205;BME280;20471;49.680;20.074;2023-02-01T04:47:58;96653.69;;;1.16;79.76
34205;BME280;20471;49.680;20.074;2023-02-01T04:50:26;96667.10;;;1.17;79.70
34205;BME280;20471;49.680;20.074;2023-02-01T04:52:55;96675.29;;;1.16;79.72
34205;BME280;20471;49.680;20.074;2023-02-01T04:55:23;96669.88;;;1.12;79.74
34205;BME280;20471;49.680;20.074;2023-02-01T04:57:51;96667.13;;;1.08;79.87
34205;BME280;20471;49.680;20.074;2023-02-01T05:00:19;96673.02;;;1.06;80.21
34205;BME280;20471;49.680;20.074;2023-02-01T05:02:47;96669.88;;;1.04;80.29
34205;BME280;20471;49.680;20.074;2023-02-01T05:05:16;96675.20;;;0.98;80.49
34205;BME280;20471;49.680;20.074;2023-02-01T05:07:45;96673.52;;;0.89;80.57
34205;BME280;20471;49.680;20.074;2023-02-01T05:10:14;96665.63;;;0.79;80.58
34205;BME280;20471;49.680;20.074;2023-02-01T05:12:44;96663.14;;;0.76;80.77
34205;BME280;20471;49.680;20.074;2023-02-01T05:15:30;96666.77;;;0.73;80.92
34205;BME280;20471;49.680;20.074;2023-02-01T05:17:58;96671.00;;;0.69;80.94
34205;BME280;20471;49.680;20.074;2023-02-01T05:20:27;96668.71;;;0.69;81.09
34205;BME280;20471;49.680;20.074;2023-02-01T05:22:55;96669.56;;;0.69;81.25
34205;BME280;20471;49.680;20.074;2023-02-01T05:25:23;96666.91;;;0.67;81.10
34205;BME280;20471;49.680;20.074;2023-02-01T05:27:51;96668.90;;;0.67;81.22
34205;BME280;20471;49.680;20.074;2023-02-01T05:30:20;96668.14;;;0.65;81.34
34205;BME280;20471;49.680;20.074;2023-02-01T05:32:50;96661.48;;;0.65;81.26
34205;BME280;20471;49.680;20.074;2023-02-01T05:35:19;96662.96;;;0.66;81.14
34205;BME280;20471;49.680;20.074;2023-02-01T05:37:47;96665.65;;;0.69;81.03
34205;BME280;20471;49.680;20.074;2023-02-01T05:40:15;96665.03;;;0.74;80.99
34205;BME280;20471;49.680;20.074;2023-02-01T05:42:43;96664.10;;;0.80;80.77
34205;BME280;20471;49.680;20.074;2023-02-01T05:45:12;96658.91;;;0.83;80.70
34205;BME280;20471;49.680;20.074;2023-02-01T05:47:40;96655.75;;;0.88;80.55
34205;BME280;20471;49.680;20.074;2023-02-01T05:50:08;96660.06;;;0.90;80.52
34205;BME280;20471;49.680;20.074;2023-02-01T05:52:36;96658.98;;;0.94;80.26
34205;BME280;20471;49.680;20.074;2023-02-01T05:55:05;96661.23;;;0.99;80.26
34205;BME280;20471;49.680;20.074;2023-02-01T05:57:33;96656.19;;;1.03;80.05
34205;BME280;20471;49.680;20.074;2023-02-01T06:00:02;96656.34;;;1.06;79.99
34205;BME280;20471;49.680;20.074;2023-02-01T06:02:31;96651.87;;;1.10;79.84
34205;BME280;20471;49.680;20.074;2023-02-01T06:04:59;96650.14;;;1.13;79.67
34205;BME280;20471;49.680;20.074;2023-02-01T06:07:27;96650.14;;;1.16;79.65
34205;BME280;20471;49.680;20.074;2023-02-01T06:09:55;96652.06;;;1.18;79.49
34205;BME280;20471;49.680;20.074;2023-02-01T06:12:23;96653.19;;;1.22;79.26
34205;BME280;20471;49.680;20.074;2023-02-01T06:14:52;96647.10;;;1.25;79.22
34205;BME280;20471;49.680;20.074;2023-02-01T06:17:21;96646.77;;;1.29;79.11
34205;BME280;20471;49.680;20.074;2023-02-01T06:19:49;96656.41;;;1.33;79.14
34205;BME280;20471;49.680;20.074;2023-02-01T06:22:17;96658.33;;;1.34;79.11
34205;BME280;20471;49.680;20.074;2023-02-01T06:24:45;96650.65;;;1.33;78.96
34205;BME280;20471;49.680;20.074;2023-02-01T06:27:13;96651.34;;;1.37;78.92
34205;BME280;20471;49.680;20.074;2023-02-01T06:29:41;96654.69;;;1.43;78.73
34205;BME280;20471;49.680;20.074;2023-02-01T06:32:09;96651.86;;;1.46;78.64
34205;BME280;20471;49.680;20.074;2023-02-01T06:34:38;96657.95;;;1.49;78.32
34205;BME280;20471;49.680;20.074;2023-02-01T06:37:06;96659.46;;;1.51;78.05
34205;BME280;20471;49.680;20.074;2023-02-01T06:39:34;96660.29;;;1.55;78.10
34205;BME280;20471;49.680;20.074;2023-02-01T06:42:02;96661.15;;;1.58;78.04
34205;BME280;20471;49.680;20.074;2023-02-01T06:44:31;96665.08;;;1.59;77.88
34205;BME280;20471;49.680;20.074;2023-02-01T06:46:59;96669.06;;;1.60;77.89
34205;BME280;20471;49.680;20.074;2023-02-01T06:49:27;96664.54;;;1.61;77.89
34205;BME280;20471;49.680;20.074;2023-02-01T06:51:55;96673.24;;;1.62;77.65
34205;BME280;20471;49.680;20.074;2023-02-01T06:54:23;96665.00;;;1.63;77.45
34205;BME280;20471;49.680;20.074;2023-02-01T06:56:51;96667.08;;;1.65;77.40
34205;BME280;20471;49.680;20.074;2023-02-01T06:59:19;96659.73;;;1.67;77.32
34205;BME280;20471;49.680;20.074;2023-02-01T07:01:47;96660.66;;;1.68;77.14
34205;BME280;20471;49.680;20.074;2023-02-01T07:04:15;96664.33;;;1.70;76.86
34205;BME280;20471;49.680;20.074;2023-02-01T07:06:43;96667.37;;;1.73;76.76
34205;BME280;20471;49.680;20.074;2023-02-01T07:09:12;96660.91;;;1.75;76.72
34205;BME280;20471;49.680;20.074;2023-02-01T07:11:40;96663.54;;;1.77;76.61
34205;BME280;20471;49.680;20.074;2023-02-01T07:14:10;96660.33;;;1.79;76.45
34205;BME280;20471;49.680;20.074;2023-02-01T07:16:38;96661.73;;;1.77;76.35
34205;BME280;20471;49.680;20.074;2023-02-01T07:19:07;96660.20;;;1.78;76.32
34205;BME280;20471;49.680;20.074;2023-02-01T07:21:35;96655.70;;;1.86;76.55
34205;BME280;20471;49.680;20.074;2023-02-01T07:24:03;96658.12;;;1.88;76.07
34205;BME280;20471;49.680;20.074;2023-02-01T07:26:31;96657.98;;;1.89;76.10
34205;BME280;20471;49.680;20.074;2023-02-01T07:28:59;96661.20;;;1.89;75.92
34205;BME280;20471;49.680;20.074;2023-02-01T07:31:27;96661.88;;;1.88;75.81
34205;BME280;20471;49.680;20.074;2023-02-01T07:33:56;96656.35;;;1.88;75.70
34205;BME280;20471;49.680;20.074;2023-02-01T07:36:24;96655.09;;;1.86;75.70
34205;BME280;20471;49.680;20.074;2023-02-01T07:38:53;96657.42;;;1.86;75.74
34205;BME280;20471;49.680;20.074;2023-02-01T07:41:21;96653.54;;;1.85;75.62
34205;BME280;20471;49.680;20.074;2023-02-01T07:43:52;96651.34;;;1.85;75.69
34205;BME280;20471;49.680;20.074;2023-02-01T07:46:20;96650.40;;;1.86;75.76
34205;BME280;20471;49.680;20.074;2023-02-01T07:48:49;96659.19;;;1.86;75.68
34205;BME280;20471;49.680;20.074;2023-02-01T07:51:17;96660.55;;;1.87;75.57
34205;BME280;20471;49.680;20.074;2023-02-01T07:53:45;96661.03;;;1.89;75.50
34205;BME280;20471;49.680;20.074;2023-02-01T07:56:19;96657.20;;;1.91;75.59
34205;BME280;20471;49.680;20.074;2023-02-01T07:58:50;96656.34;;;1.93;75.66
34205;BME280;20471;49.680;20.074;2023-02-01T08:01:21;96657.13;;;1.95;75.57
34205;BME280;20471;49.680;20.074;2023-02-01T08:03:56;96654.56;;;1.97;75.59
34205;BME280;20471;49.680;20.074;2023-02-01T08:06:26;96653.06;;;1.98;75.46
34205;BME280;20471;49.680;20.074;2023-02-01T08:08:54;96649.33;;;1.99;75.45
34205;BME280;20471;49.680;20.074;2023-02-01T08:11:24;96652.61;;;2.00;75.37
34205;BME280;20471;49.680;20.074;2023-02-01T08:13:53;96651.77;;;1.98;75.31
34205;BME280;20471;49.680;20.074;2023-02-01T08:16:22;96651.83;;;1.98;75.13
34205;BME280;20471;49.680;20.074;2023-02-01T08:18:51;96657.05;;;1.99;75.10
34205;BME280;20471;49.680;20.074;2023-02-01T08:21:25;96656.95;;;1.98;75.15
34205;BME280;20471;49.680;20.074;2023-02-01T08:24:04;96654.83;;;1.96;75.13
34205;BME280;20471;49.680;20.074;2023-02-01T08:26:33;96647.14;;;1.95;75.06
34205;BME280;20471;49.680;20.074;2023-02-01T08:29:04;96646.61;;;1.97;75.20
34205;BME280;20471;49.680;20.074;2023-02-01T08:31:32;96644.97;;;1.99;75.11
34205;BME280;20471;49.680;20.074;2023-02-01T08:34:02;96649.99;;;2.00;74.95
34205;BME280;20471;49.680;20.074;2023-02-01T08:36:31;96651.65;;;2.01;74.97
34205;BME280;20471;49.680;20.074;2023-02-01T08:39:00;96650.05;;;2.02;74.89
34205;BME280;20471;49.680;20.074;2023-02-01T08:41:31;96648.21;;;2.03;74.83
34205;BME280;20471;49.680;20.074;2023-02-01T08:44:00;96650.34;;;2.03;74.73
34205;BME280;20471;49.680;20.074;2023-02-01T08:46:28;96647.04;;;2.04;74.74
34205;BME280;20471;49.680;20.074;2023-02-01T08:48:56;96646.98;;;2.04;74.68
34205;BME280;20471;49.680;20.074;2023-02-01T08:51:24;96649.77;;;2.06;74.66
34205;BME280;20471;49.680;20.074;2023-02-01T08:53:52;96648.86;;;2.08;74.48
34205;BME280;20471;49.680;20.074;2023-02-01T08:56:20;96647.83;;;2.09;74.55
34205;BME280;20471;49.680;20.074;2023-02-01T08:58:49;96651.18;;;2.11;74.44
34205;BME280;20471;49.680;20.074;2023-02-01T09:01:17;96650.38;;;2.11;74.29
34205;BME280;20471;49.680;20.074;2023-02-01T09:03:45;96651.48;;;2.13;74.17
34205;BME280;20471;49.680;20.074;2023-02-01T09:06:15;96652.32;;;2.14;74.09
34205;BME280;20471;49.680;20.074;2023-02-01T09:08:43;96650.33;;;2.15;74.02
34205;BME280;20471;49.680;20.074;2023-02-01T09:11:14;96649.99;;;2.18;74.02
34205;BME280;20471;49.680;20.074;2023-02-01T09:13:43;96651.77;;;2.19;74.07
34205;BME280;20471;49.680;20.074;2023-02-01T09:16:12;96650.27;;;2.20;74.01
34205;BME280;20471;49.680;20.074;2023-02-01T09:18:40;96645.03;;;2.22;74.01
34205;BME280;20471;49.680;20.074;2023-02-01T09:21:08;96643.88;;;2.26;73.93
34205;BME280;20471;49.680;20.074;2023-02-01T09:23:36;96640.91;;;2.30;73.80
34205;BME280;20471;49.680;20.074;2023-02-01T09:26:05;96634.48;;;2.32;73.82
34205;BME280;20471;49.680;20.074;2023-02-01T09:28:33;96628.63;;;2.35;73.70
34205;BME280;20471;49.680;20.074;2023-02-01T09:31:01;96628.31;;;2.38;73.67
34205;BME280;20471;49.680;20.074;2023-02-01T09:33:30;96618.91;;;2.39;73.56
34205;BME280;20471;49.680;20.074;2023-02-01T09:35:59;96616.41;;;2.42;73.55
34205;BME280;20471;49.680;20.074;2023-02-01T09:38:28;96613.77;;;2.46;73.57
34205;BME280;20471;49.680;20.074;2023-02-01T09:40:57;96608.38;;;2.51;73.50
34205;BME280;20471;49.680;20.074;2023-02-01T09:43:42;96602.04;;;2.56;73.32
34205;BME280;20471;49.680;20.074;2023-02-01T09:46:29;96598.34;;;2.60;73.18
34205;BME280;20471;49.680;20.074;2023-02-01T09:49:08;96591.95;;;2.66;73.07
34205;BME280;20471;49.680;20.074;2023-02-01T09:51:43;96584.29;;;2.74;72.94
34205;BME280;20471;49.680;20.074;2023-02-01T09:54:18;96578.88;;;2.80;72.97
34205;BME280;20471;49.680;20.074;2023-02-01T09:56:49;96579.67;;;2.87;72.75
34205;BME280;20471;49.680;20.074;2023-02-01T09:59:37;96578.44;;;2.95;72.75
34205;BME280;20471;49.680;20.074;2023-02-01T10:02:13;96578.92;;;3.00;72.68
34205;BME280;20471;49.680;20.074;2023-02-01T10:04:43;96576.55;;;3.05;72.37
34205;BME280;20471;49.680;20.074;2023-02-01T10:15:39;96575.16;;;3.33;71.76
34205;BME280;20471;49.680;20.074;2023-02-01T10:23:49;96572.31;;;3.41;71.36
34205;BME280;20471;49.680;20.074;2023-02-01T10:26:23;96566.53;;;3.45;71.31
34205;BME280;20471;49.680;20.074;2023-02-01T10:29:00;96565.40;;;3.50;71.27
34205;BME280;20471;49.680;20.074;2023-02-01T10:31:33;96568.73;;;3.54;71.14
34205;BME280;20471;49.680;20.074;2023-02-01T10:34:21;96567.61;;;3.56;71.19
34205;BME280;20471;49.680;20.074;2023-02-01T10:37:18;96568.01;;;3.52;71.39
34205;BME280;20471;49.680;20.074;2023-02-01T10:39:48;96578.11;;;3.42;71.44
34205;BME280;20471;49.680;20.074;2023-02-01T10:42:20;96578.58;;;3.37;71.47
34205;BME280;20471;49.680;20.074;2023-02-01T10:44:49;96575.95;;;3.37;71.58
34205;BME280;20471;49.680;20.074;2023-02-01T10:47:19;96573.10;;;3.32;71.70
34205;BME280;20471;49.680;20.074;2023-02-01T10:52:38;96581.09;;;3.17;71.81
34205;BME280;20471;49.680;20.074;2023-02-01T10:55:38;96581.54;;;3.15;72.06
34205;BME280;20471;49.680;20.074;2023-02-01T10:58:21;96570.48;;;3.13;72.20
34205;BME280;20471;49.680;20.074;2023-02-01T11:00:58;96569.69;;;3.06;72.43
34205;BME280;20471;49.680;20.074;2023-02-01T11:03:39;96569.55;;;3.03;72.78
34205;BME280;20471;49.680;20.074;2023-02-01T11:06:17;96568.10;;;3.04;73.11
34205;BME280;20471;49.680;20.074;2023-02-01T11:08:52;96562.80;;;3.11;73.48
34205;BME280;20471;49.680;20.074;2023-02-01T11:11:21;96560.73;;;3.20;73.40
34205;BME280;20471;49.680;20.074;2023-02-01T11:14:01;96553.85;;;3.24;73.13
34205;BME280;20471;49.680;20.074;2023-02-01T11:16:39;96553.16;;;3.29;73.30
34205;BME280;20471;49.680;20.074;2023-02-01T11:19:07;96545.91;;;3.36;73.49
34205;BME280;20471;49.680;20.074;2023-02-01T11:21:35;96542.76;;;3.42;73.58
34205;BME280;20471;49.680;20.074;2023-02-01T11:24:04;96543.41;;;3.47;73.68
34205;BME280;20471;49.680;20.074;2023-02-01T11:26:39;96542.15;;;3.52;73.72
34205;BME280;20471;49.680;20.074;2023-02-01T11:29:13;96540.56;;;3.44;73.07
34205;BME280;20471;49.680;20.074;2023-02-01T11:31:44;96542.58;;;3.39;73.25
34205;BME280;20471;49.680;20.074;2023-02-01T11:34:18;96540.77;;;3.38;73.40
34205;BME280;20471;49.680;20.074;2023-02-01T11:36:49;96536.17;;;3.39;73.53
34205;BME280;20471;49.680;20.074;2023-02-01T11:39:31;96536.39;;;3.41;73.61
34205;BME280;20471;49.680;20.074;2023-02-01T11:42:15;96536.01;;;3.43;73.38
34205;BME280;20471;49.680;20.074;2023-02-01T11:44:45;96532.25;;;3.42;73.47
34205;BME280;20471;49.680;20.074;2023-02-01T11:47:31;96530.91;;;3.40;73.60
34205;BME280;20471;49.680;20.074;2023-02-01T11:50:18;96529.16;;;3.41;73.68
34205;BME280;20471;49.680;20.074;2023-02-01T12:04:13;96510.91;;;3.33;73.91
34205;BME280;20471;49.680;20.074;2023-02-01T12:09:44;96507.39;;;3.46;74.00
34205;BME280;20471;49.680;20.074;2023-02-01T12:20:54;96485.31;;;3.63;73.74
34205;BME280;20471;49.680;20.074;2023-02-01T12:34:56;96469.27;;;4.22;73.25
34205;BME280;20471;49.680;20.074;2023-02-01T12:40:21;96460.13;;;4.53;72.98
34205;BME280;20471;49.680;20.074;2023-02-01T12:43:03;96463.73;;;4.60;72.41
34205;BME280;20471;49.680;20.074;2023-02-01T12:45:46;96464.46;;;4.58;71.98
34205;BME280;20471;49.680;20.074;2023-02-01T12:51:11;96453.90;;;4.44;71.67
34205;BME280;20471;49.680;20.074;2023-02-01T12:53:48;96455.14;;;4.41;71.65
34205;BME280;20471;49.680;20.074;2023-02-01T12:56:23;96455.36;;;4.36;71.46
34205;BME280;20471;49.680;20.074;2023-02-01T12:58:58;96462.27;;;4.30;71.21
34205;BME280;20471;49.680;20.074;2023-02-01T13:01:41;96464.84;;;4.17;71.21
34205;BME280;20471;49.680;20.074;2023-02-01T13:04:32;96465.73;;;4.10;71.37
34205;BME280;20471;49.680;20.074;2023-02-01T13:07:09;96464.48;;;4.04;71.47
34205;BME280;20471;49.680;20.074;2023-02-01T13:10:02;96467.07;;;3.99;71.54
34205;BME280;20471;49.680;20.074;2023-02-01T13:12:38;96463.34;;;3.93;71.57
34205;BME280;20471;49.680;20.074;2023-02-01T13:15:17;96462.17;;;3.91;71.48
34205;BME280;20471;49.680;20.074;2023-02-01T13:17:47;96463.55;;;3.93;71.67
34205;BME280;20471;49.680;20.074;2023-02-01T13:20:33;96466.98;;;3.91;71.73
34205;BME280;20471;49.680;20.074;2023-02-01T13:25:46;96454.88;;;3.69;71.80
34205;BME280;20471;49.680;20.074;2023-02-01T13:28:23;96454.93;;;3.62;71.95
34205;BME280;20471;49.680;20.074;2023-02-01T13:39:40;96437.52;;;3.67;72.26
34205;BME280;20471;49.680;20.074;2023-02-01T13:42:31;96431.56;;;3.67;72.08
34205;BME280;20471;49.680;20.074;2023-02-01T13:45:13;96428.48;;;3.67;71.91
34205;BME280;20471;49.680;20.074;2023-02-01T13:47:45;96423.69;;;3.62;71.96
34205;BME280;20471;49.680;20.074;2023-02-01T13:50:37;96425.05;;;3.61;71.85
34205;BME280;20471;49.680;20.074;2023-02-01T13:55:40;96415.43;;;3.61;71.64
34205;BME280;20471;49.680;20.074;2023-02-01T14:03:59;96408.52;;;3.65;71.53
34205;BME280;20471;49.680;20.074;2023-02-01T14:19:24;96406.40;;;3.61;71.09
34205;BME280;20471;49.680;20.074;2023-02-01T14:21:57;96412.38;;;3.59;70.95
34205;BME280;20471;49.680;20.074;2023-02-01T14:24:33;96408.15;;;3.56;70.93
34205;BME280;20471;49.680;20.074;2023-02-01T14:27:17;96403.22;;;3.55;70.92
34205;BME280;20471;49.680;20.074;2023-02-01T14:30:07;96405.77;;;3.56;70.90
34205;BME280;20471;49.680;20.074;2023-02-01T14:32:39;96406.23;;;3.56;70.81
34205;BME280;20471;49.680;20.074;2023-02-01T14:35:25;96404.29;;;3.55;70.57
34205;BME280;20471;49.680;20.074;2023-02-01T14:37:59;96402.58;;;3.53;70.66
34205;BME280;20471;49.680;20.074;2023-02-01T14:40:29;96395.25;;;3.51;70.69
34205;BME280;20471;49.680;20.074;2023-02-01T14:42:58;96392.04;;;3.48;70.63
34205;BME280;20471;49.680;20.074;2023-02-01T14:50:46;96401.04;;;3.42;70.75
34205;BME280;20471;49.680;20.074;2023-02-01T14:53:20;96397.72;;;3.33;70.76
34205;BME280;20471;49.680;20.074;2023-02-01T14:55:51;96393.89;;;3.29;70.81
34205;BME280;20471;49.680;20.074;2023-02-01T15:01:23;96391.88;;;3.28;71.01
34205;BME280;20471;49.680;20.074;2023-02-01T15:04:08;96394.54;;;3.26;70.89
34205;BME280;20471;49.680;20.074;2023-02-01T15:09:14;96398.65;;;3.16;71.02
34205;BME280;20471;49.680;20.074;2023-02-01T15:12:04;96405.45;;;3.13;71.26
34205;BME280;20471;49.680;20.074;2023-02-01T15:14:39;96410.77;;;3.07;71.51
34205;BME280;20471;49.680;20.074;2023-02-01T15:19:58;96407.15;;;2.94;72.03
34205;BME280;20471;49.680;20.074;2023-02-01T15:22:28;96415.21;;;2.84;72.39
34205;BME280;20471;49.680;20.074;2023-02-01T15:24:59;96415.15;;;2.75;72.53
34205;BME280;20471;49.680;20.074;2023-02-01T15:27:28;96414.48;;;2.72;72.76
34205;BME280;20471;49.680;20.074;2023-02-01T15:30:17;96417.96;;;2.71;73.07
34205;BME280;20471;49.680;20.074;2023-02-01T15:32:46;96414.83;;;2.63;73.17
34205;BME280;20471;49.680;20.074;2023-02-01T15:35:43;96413.75;;;2.59;73.28
34205;BME280;20471;49.680;20.074;2023-02-01T15:46:39;96420.41;;;2.30;73.87
34205;BME280;20471;49.680;20.074;2023-02-01T15:49:23;96426.91;;;2.23;73.92
34205;BME280;20471;49.680;20.074;2023-02-01T15:51:54;96428.94;;;2.15;74.21
34205;BME280;20471;49.680;20.074;2023-02-01T15:54:26;96437.73;;;2.10;74.19
34205;BME280;20471;49.680;20.074;2023-02-01T15:57:00;96443.85;;;2.05;74.26
34205;BME280;20471;49.680;20.074;2023-02-01T15:59:47;96451.04;;;2.01;74.56
34205;BME280;20471;49.680;20.074;2023-02-01T16:02:32;96453.64;;;1.97;74.83
34205;BME280;20471;49.680;20.074;2023-02-01T16:05:02;96456.41;;;1.95;75.05